createdAt,value
2022-11-16T00:01:57.855Z,18.43
2022-11-16T00:04:25.827Z,16.07
2022-11-16T00:06:54.170Z,17.17
2022-11-16T00:09:26.957Z,15.00
2022-11-16T00:11:57.389Z,16.00
2022-11-16T00:14:27.440Z,14.33
2022-11-16T00:16:57.054Z,13.60
2022-11-16T00:19:25.993Z,13.07
2022-11-16T00:21:54.280Z,13.80
2022-11-16T00:24:23.534Z,14.67
2022-11-16T00:26:54.049Z,12.90
2022-11-16T00:29:23.913Z,16.00
2022-11-16T00:31:52.134Z,15.13
2022-11-16T00:34:21.953Z,13.93
2022-11-16T00:36:50.229Z,13.50
2022-11-16T00:39:19.124Z,13.17
2022-11-16T00:41:47.565Z,12.70
2022-11-16T00:44:15.810Z,13.03
2022-11-16T00:46:43.871Z,13.40
2022-11-16T00:49:12.108Z,13.23
2022-11-16T00:51:41.398Z,14.00
2022-11-16T00:54:09.890Z,17.30
2022-11-16T00:56:38.590Z,17.27
2022-11-16T00:59:06.869Z,16.20
2022-11-16T01:01:35.391Z,14.07
2022-11-16T01:04:03.398Z,14.07
2022-11-16T01:06:31.378Z,14.80
2022-11-16T01:09:01.905Z,13.47
2022-11-16T01:11:47.258Z,15.33
2022-11-16T01:14:15.269Z,12.53
2022-11-16T01:16:43.254Z,11.77
2022-11-16T01:19:11.411Z,12.03
2022-11-16T01:21:39.397Z,11.83
2022-11-16T01:24:09.841Z,11.60
2022-11-16T01:26:37.826Z,10.90
2022-11-16T01:29:05.786Z,10.90
2022-11-16T01:31:33.778Z,10.67
2022-11-16T01:34:01.721Z,12.20
2022-11-16T01:36:29.792Z,10.40
2022-11-16T01:38:58.052Z,11.80
2022-11-16T01:41:27.922Z,10.90
2022-11-16T01:43:59.769Z,12.73
2022-11-16T01:46:28.936Z,12.30
2022-11-16T01:49:02.458Z,12.60
2022-11-16T01:51:30.754Z,10.97
2022-11-16T01:54:01.457Z,11.30
2022-11-16T01:56:32.485Z,11.47
2022-11-16T01:59:00.560Z,11.80
2022-11-16T02:01:28.749Z,11.10
2022-11-16T02:03:56.917Z,12.30
2022-11-16T02:06:33.796Z,12.50
2022-11-16T02:09:31.646Z,11.30
2022-11-16T02:12:12.986Z,12.10
2022-11-16T02:14:57.690Z,12.67
2022-11-16T02:17:36.327Z,12.23
2022-11-16T02:20:30.172Z,11.07
2022-11-16T02:23:17.628Z,11.40
2022-11-16T02:25:54.850Z,12.40
2022-11-16T02:28:35.146Z,13.50
2022-11-16T02:31:08.373Z,13.57
2022-11-16T02:33:40.044Z,10.97
2022-11-16T02:36:12.789Z,11.60
2022-11-16T02:38:45.509Z,12.70
2022-11-16T02:41:17.601Z,12.63
2022-11-16T02:43:49.371Z,13.20
2022-11-16T02:46:22.873Z,11.17
2022-11-16T02:48:54.197Z,11.33
2022-11-16T02:51:22.753Z,11.40
2022-11-16T02:54:01.666Z,11.27
2022-11-16T02:56:30.665Z,11.70
2022-11-16T02:59:00.137Z,12.50
2022-11-16T03:01:36.366Z,11.37
2022-11-16T03:04:09.622Z,11.90
2022-11-16T03:06:41.434Z,12.03
2022-11-16T03:09:13.001Z,11.60
2022-11-16T03:12:08.457Z,13.00
2022-11-16T03:14:42.161Z,11.50
2022-11-16T03:17:16.994Z,11.50
2022-11-16T03:19:50.043Z,13.00
2022-11-16T03:22:24.249Z,12.47
2022-11-16T03:24:52.510Z,11.97
2022-11-16T03:27:27.910Z,11.27
2022-11-16T03:30:05.565Z,11.30
2022-11-16T03:32:42.738Z,11.90
2022-11-16T03:35:15.582Z,15.47
2022-11-16T03:37:45.792Z,12.53
2022-11-16T03:40:14.988Z,12.67
2022-11-16T03:42:44.642Z,13.90
2022-11-16T03:45:14.083Z,12.93
2022-11-16T03:47:43.480Z,11.83
2022-11-16T03:50:11.722Z,14.03
2022-11-16T03:52:39.671Z,13.90
2022-11-16T03:55:08.233Z,14.13
2022-11-16T03:57:36.296Z,12.40
2022-11-16T04:00:05.078Z,13.13
2022-11-16T04:02:33.093Z,11.33
2022-11-16T04:05:19.636Z,11.83
2022-11-16T04:08:07.124Z,12.93
2022-11-16T04:10:52.742Z,12.83
2022-11-16T04:13:45.181Z,13.17
2022-11-16T04:16:30.718Z,11.37
2022-11-16T04:19:16.392Z,12.40
2022-11-16T04:22:08.216Z,12.80
2022-11-16T04:24:39.385Z,11.43
2022-11-16T04:27:27.684Z,11.83
2022-11-16T04:29:57.670Z,12.97
2022-11-16T04:32:43.689Z,11.87
2022-11-16T04:35:43.530Z,11.90
2022-11-16T04:38:12.824Z,12.93
2022-11-16T04:40:41.024Z,11.77
2022-11-16T04:43:08.951Z,11.07
2022-11-16T04:45:54.627Z,12.07
2022-11-16T04:48:22.804Z,13.10
2022-11-16T04:50:50.778Z,11.83
2022-11-16T04:53:22.392Z,13.60
2022-11-16T04:55:51.139Z,13.07
2022-11-16T04:58:19.133Z,13.47
2022-11-16T05:00:47.045Z,13.10
2022-11-16T05:03:15.016Z,12.70
2022-11-16T05:05:42.945Z,14.07
2022-11-16T05:08:10.903Z,14.60
2022-11-16T05:10:40.225Z,14.60
2022-11-16T05:13:08.213Z,14.10
2022-11-16T05:15:36.225Z,15.50
2022-11-16T05:18:04.175Z,17.40
2022-11-16T05:20:49.502Z,16.37
2022-11-16T05:23:37.325Z,16.17
2022-11-16T05:26:06.926Z,15.57
2022-11-16T05:28:35.136Z,15.33
2022-11-16T05:31:03.327Z,14.20
2022-11-16T05:33:31.248Z,15.40
2022-11-16T05:35:59.199Z,13.77
2022-11-16T05:38:27.120Z,13.60
2022-11-16T05:40:55.219Z,14.00
2022-11-16T05:43:24.686Z,15.67
2022-11-16T05:45:52.720Z,16.10
2022-11-16T05:48:20.656Z,16.67
2022-11-16T05:50:48.702Z,16.30
2022-11-16T05:53:16.677Z,14.87
2022-11-16T05:55:44.639Z,16.57
2022-11-16T05:58:12.657Z,16.23
2022-11-16T06:00:41.933Z,16.90
2022-11-16T06:03:10.250Z,15.40
2022-11-16T06:05:40.722Z,17.17
2022-11-16T06:08:08.837Z,16.60
2022-11-16T06:10:37.092Z,16.47
2022-11-16T06:13:05.053Z,15.90
2022-11-16T06:15:33.006Z,16.37
2022-11-16T06:18:02.280Z,17.83
2022-11-16T06:20:30.222Z,18.40
2022-11-16T06:22:58.217Z,15.50
2022-11-16T06:25:26.233Z,17.53
2022-11-16T06:27:54.551Z,16.63
2022-11-16T06:30:22.456Z,18.43
2022-11-16T06:32:50.415Z,17.63
2022-11-16T06:35:19.918Z,15.37
2022-11-16T06:37:47.853Z,14.87
2022-11-16T06:40:15.769Z,18.43
2022-11-16T06:42:43.901Z,15.37
2022-11-16T06:45:12.013Z,18.33
2022-11-16T06:47:39.968Z,20.30
2022-11-16T06:50:08.983Z,18.63
2022-11-16T06:52:38.303Z,17.10
2022-11-16T06:55:07.146Z,22.33
2022-11-16T06:57:36.101Z,16.40
2022-11-16T07:00:05.152Z,17.37
2022-11-16T07:02:33.076Z,15.50
2022-11-16T07:05:03.824Z,15.83
2022-11-16T07:07:32.177Z,16.80
2022-11-16T07:10:01.572Z,17.00
2022-11-16T07:12:29.509Z,16.00
2022-11-16T07:14:57.465Z,15.63
2022-11-16T07:17:25.466Z,20.23
2022-11-16T07:19:53.556Z,18.87
2022-11-16T07:22:21.477Z,16.80
2022-11-16T07:24:49.386Z,17.47
2022-11-16T07:27:18.702Z,20.37
2022-11-16T07:29:46.708Z,17.70
2022-11-16T07:32:14.693Z,19.57
2022-11-16T07:34:42.614Z,18.37
2022-11-16T07:37:10.691Z,19.13
2022-11-16T07:39:38.644Z,17.80
2022-11-16T07:42:11.427Z,24.47
2022-11-16T07:44:40.853Z,21.00
2022-11-16T07:47:08.769Z,19.50
2022-11-16T07:49:36.802Z,25.10
2022-11-16T07:52:04.763Z,25.30
2022-11-16T07:54:32.701Z,25.47
2022-11-16T07:57:00.620Z,36.27
2022-11-16T07:59:28.765Z,24.83
2022-11-16T08:01:59.255Z,23.80
2022-11-16T08:04:27.479Z,22.60
2022-11-16T08:06:55.509Z,53.03
2022-11-16T08:09:23.547Z,36.17
2022-11-16T08:11:51.657Z,23.03
2022-11-16T08:14:19.670Z,31.70
2022-11-16T08:16:47.620Z,20.80
2022-11-16T08:19:17.052Z,19.17
2022-11-16T08:21:45.699Z,19.50
2022-11-16T08:24:13.631Z,23.63
2022-11-16T08:26:41.545Z,27.13
2022-11-16T08:29:09.457Z,25.60
2022-11-16T08:31:38.115Z,38.40
2022-11-16T08:34:06.070Z,40.23
2022-11-16T08:36:35.537Z,36.10
2022-11-16T08:39:03.496Z,22.53
2022-11-16T08:41:31.851Z,21.90
2022-11-16T08:44:00.275Z,20.10
2022-11-16T08:46:28.614Z,32.07
2022-11-16T08:48:57.656Z,26.50
2022-11-16T08:51:26.479Z,22.60
2022-11-16T08:53:58.934Z,18.97
2022-11-16T08:56:27.318Z,18.43
2022-11-16T08:58:58.864Z,19.80
2022-11-16T09:01:29.191Z,19.37
2022-11-16T09:03:57.698Z,17.07
2022-11-16T09:06:27.618Z,16.33
2022-11-16T09:08:57.540Z,16.57
2022-11-16T09:11:27.151Z,18.00
2022-11-16T09:13:56.381Z,18.87
2022-11-16T09:16:26.590Z,18.50
2022-11-16T09:18:55.697Z,17.63
2022-11-16T09:21:25.450Z,18.30
2022-11-16T09:23:54.760Z,19.20
2022-11-16T09:26:24.813Z,15.30
2022-11-16T09:28:56.747Z,16.70
2022-11-16T09:31:24.847Z,14.43
2022-11-16T09:33:52.732Z,14.80
2022-11-16T09:36:21.390Z,15.73
2022-11-16T09:41:53.282Z,16.33
2022-11-16T09:44:40.913Z,15.50
2022-11-16T09:47:15.894Z,15.70
2022-11-16T09:49:48.320Z,14.80
2022-11-16T09:52:26.049Z,14.17
2022-11-16T09:54:55.848Z,14.60
2022-11-16T09:57:30.197Z,15.30
2022-11-16T10:00:03.155Z,13.83
2022-11-16T10:02:36.885Z,14.43
2022-11-16T10:05:14.541Z,16.80
2022-11-16T10:07:45.969Z,16.10
2022-11-16T10:10:15.957Z,17.10
2022-11-16T10:12:50.001Z,16.63
2022-11-16T10:15:35.500Z,14.57
2022-11-16T10:18:13.524Z,14.80
2022-11-16T10:21:07.273Z,13.60
2022-11-16T10:23:49.780Z,15.43
2022-11-16T10:26:28.281Z,14.50
2022-11-16T10:29:10.634Z,14.80
2022-11-16T10:31:55.862Z,15.33
2022-11-16T10:34:29.490Z,15.40
2022-11-16T10:37:03.271Z,15.40
2022-11-16T10:39:33.621Z,16.07
2022-11-16T10:42:07.685Z,14.53
2022-11-16T10:44:41.336Z,14.37
2022-11-16T10:47:17.840Z,15.70
2022-11-16T10:49:54.501Z,15.47
2022-11-16T10:52:23.532Z,15.40
2022-11-16T10:54:51.637Z,14.17
2022-11-16T10:57:19.735Z,16.40
2022-11-16T10:59:53.173Z,14.83
2022-11-16T11:02:35.644Z,16.23
2022-11-16T11:05:08.068Z,15.70
2022-11-16T11:07:39.802Z,16.13
2022-11-16T11:10:25.227Z,12.93
2022-11-16T11:13:18.186Z,14.17
2022-11-16T11:15:48.764Z,13.33
2022-11-16T11:18:27.651Z,13.07
2022-11-16T11:21:07.877Z,14.43
2022-11-16T11:23:43.872Z,13.30
2022-11-16T11:26:37.092Z,13.50
2022-11-16T11:29:17.967Z,13.63
2022-11-16T11:31:51.276Z,13.70
2022-11-16T11:34:22.589Z,13.93
2022-11-16T11:36:54.801Z,14.50
2022-11-16T11:39:33.961Z,12.83
2022-11-16T11:42:07.571Z,12.83
2022-11-16T11:44:49.190Z,13.60
2022-11-16T11:50:22.850Z,14.37
2022-11-16T11:53:01.479Z,13.43
2022-11-16T11:55:29.902Z,14.63
2022-11-16T11:57:59.882Z,14.17
2022-11-16T12:00:28.147Z,13.60
2022-11-16T12:03:34.433Z,13.80
2022-11-16T12:06:14.681Z,12.50
2022-11-16T12:09:01.917Z,13.30
2022-11-16T12:11:38.856Z,12.57
2022-11-16T12:14:27.000Z,13.90
2022-11-16T12:17:03.249Z,12.87
2022-11-16T12:19:49.702Z,17.80
2022-11-16T12:22:30.933Z,11.80
2022-11-16T12:25:16.950Z,10.40
2022-11-16T12:27:53.036Z,10.23
2022-11-16T12:30:23.237Z,11.80
2022-11-16T12:33:21.514Z,10.57
2022-11-16T12:35:57.929Z,11.07
2022-11-16T12:38:48.425Z,11.53
2022-11-16T12:41:45.159Z,11.90
2022-11-16T12:44:19.443Z,11.60
2022-11-16T12:47:00.103Z,10.40
2022-11-16T12:49:53.614Z,11.73
2022-11-16T12:52:47.366Z,9.40
2022-11-16T12:55:26.845Z,11.40
2022-11-16T12:58:08.661Z,11.00
2022-11-16T13:00:49.037Z,10.87
2022-11-16T13:03:22.204Z,10.20
2022-11-16T13:05:55.583Z,10.60
2022-11-16T13:08:36.470Z,10.90
2022-11-16T13:11:12.714Z,10.30
2022-11-16T13:13:45.745Z,13.03
2022-11-16T13:16:17.957Z,10.70
2022-11-16T13:18:46.077Z,12.27
2022-11-16T13:21:23.023Z,11.80
2022-11-16T13:24:03.868Z,11.60
2022-11-16T13:26:37.961Z,10.37
2022-11-16T13:29:15.706Z,9.50
2022-11-16T13:31:50.274Z,8.90
2022-11-16T13:34:24.408Z,7.70
2022-11-16T13:36:52.748Z,7.10
2022-11-16T13:39:57.394Z,6.90
2022-11-16T13:42:26.354Z,6.40
2022-11-16T13:44:54.917Z,5.87
2022-11-16T13:47:25.673Z,6.63
2022-11-16T13:49:56.712Z,7.17
2022-11-16T13:52:35.457Z,6.33
2022-11-16T13:55:26.503Z,5.17
2022-11-16T13:57:57.150Z,6.43
2022-11-16T14:00:30.848Z,5.00
2022-11-16T14:03:31.549Z,5.03
2022-11-16T14:05:59.951Z,6.17
2022-11-16T14:08:51.581Z,7.00
2022-11-16T14:11:33.073Z,6.03
2022-11-16T14:14:02.178Z,6.17
2022-11-16T14:16:46.751Z,6.43
2022-11-16T14:19:57.342Z,6.40
2022-11-16T14:22:39.708Z,6.80
2022-11-16T14:25:23.666Z,5.63
2022-11-16T14:28:00.962Z,6.20
2022-11-16T14:30:33.522Z,6.03
2022-11-16T14:33:01.605Z,4.80
2022-11-16T14:35:33.763Z,5.80
2022-11-16T14:38:04.402Z,7.00
2022-11-16T14:40:36.900Z,19.10
2022-11-16T14:43:16.394Z,9.00
2022-11-16T14:45:50.302Z,8.93
2022-11-16T14:48:20.357Z,6.67
2022-11-16T14:51:01.233Z,7.13
2022-11-16T14:53:30.312Z,7.17
2022-11-16T14:56:08.782Z,8.83
2022-11-16T14:58:38.457Z,12.10
2022-11-16T15:01:09.142Z,7.23
2022-11-16T15:03:42.303Z,6.10
2022-11-16T15:06:10.544Z,5.70
2022-11-16T15:08:43.400Z,6.90
2022-11-16T15:11:21.891Z,7.13
2022-11-16T15:13:51.855Z,7.60
2022-11-16T15:16:21.197Z,8.73
2022-11-16T15:19:00.459Z,7.90
2022-11-16T15:21:30.006Z,7.40
2022-11-16T15:26:46.022Z,8.20
2022-11-16T15:29:18.848Z,7.33
2022-11-16T15:31:48.110Z,6.60
2022-11-16T15:34:18.476Z,6.90
2022-11-16T15:36:47.353Z,6.83
2022-11-16T15:39:18.676Z,8.70
2022-11-16T15:41:47.058Z,7.93
2022-11-16T15:44:18.742Z,8.00
2022-11-16T15:46:49.749Z,7.73
2022-11-16T15:49:28.457Z,9.40
2022-11-16T15:51:57.449Z,7.73
2022-11-16T15:54:27.519Z,7.67
2022-11-16T15:56:57.540Z,7.17
2022-11-16T15:59:30.522Z,8.93
2022-11-16T16:01:58.830Z,7.60
2022-11-16T16:04:27.508Z,8.63
2022-11-16T16:06:58.055Z,8.30
2022-11-16T16:09:29.028Z,8.73
2022-11-16T16:11:58.445Z,10.37
2022-11-16T16:14:29.754Z,9.40
2022-11-16T16:16:59.647Z,8.70
2022-11-16T16:19:35.613Z,8.70
2022-11-16T16:22:05.522Z,8.33
2022-11-16T16:24:40.924Z,9.50
2022-11-16T16:27:13.597Z,8.47
2022-11-16T16:29:43.670Z,8.07
2022-11-16T16:32:22.018Z,8.67
2022-11-16T16:34:50.709Z,8.97
2022-11-16T16:37:19.307Z,8.17
2022-11-16T16:39:47.306Z,9.60
2022-11-16T16:42:16.697Z,8.50
2022-11-16T16:44:47.137Z,8.77
2022-11-16T16:47:16.072Z,10.70
2022-11-16T16:49:44.224Z,11.30
2022-11-16T16:52:13.666Z,15.80
2022-11-16T16:54:42.150Z,17.10
2022-11-16T16:57:14.270Z,18.53
2022-11-16T16:59:42.225Z,14.83
2022-11-16T17:02:12.714Z,14.37
2022-11-16T17:04:40.690Z,14.33
2022-11-16T17:07:08.684Z,11.60
2022-11-16T17:09:36.718Z,10.50
2022-11-16T17:12:04.856Z,8.93
2022-11-16T17:14:32.795Z,10.17
2022-11-16T17:17:00.782Z,10.53
2022-11-16T17:19:30.636Z,10.63
2022-11-16T17:21:59.304Z,10.47
2022-11-16T17:24:27.262Z,8.30
2022-11-16T17:26:55.240Z,9.00
2022-11-16T17:29:23.293Z,9.43
2022-11-16T17:31:51.585Z,9.00
2022-11-16T17:34:19.549Z,10.60
2022-11-16T17:36:49.192Z,10.10
2022-11-16T17:39:19.116Z,10.20
2022-11-16T17:41:47.064Z,9.17
2022-11-16T17:44:21.251Z,10.77
2022-11-16T17:46:49.944Z,10.10
2022-11-16T17:49:17.864Z,10.53
2022-11-16T17:51:45.782Z,8.80
2022-11-16T17:54:15.075Z,9.00
2022-11-16T17:56:43.171Z,9.63
2022-11-16T17:59:11.124Z,11.63
2022-11-16T18:01:39.338Z,10.23
2022-11-16T18:04:07.451Z,10.90
2022-11-16T18:06:35.597Z,9.90
2022-11-16T18:09:03.690Z,10.93
2022-11-16T18:11:33.391Z,9.33
2022-11-16T18:14:04.695Z,9.87
2022-11-16T18:16:34.260Z,9.67
2022-11-16T18:19:04.179Z,9.40
2022-11-16T18:21:34.086Z,9.20
2022-11-16T18:24:02.765Z,10.07
2022-11-16T18:26:32.722Z,11.03
2022-11-16T18:29:00.688Z,10.70
2022-11-16T18:31:29.705Z,9.57
2022-11-16T18:33:57.700Z,10.80
2022-11-16T18:36:25.678Z,10.53
2022-11-16T18:38:53.693Z,9.73
2022-11-16T18:41:24.370Z,10.03
2022-11-16T18:43:55.071Z,9.17
2022-11-16T18:46:25.413Z,12.77
2022-11-16T18:48:53.420Z,11.60
2022-11-16T18:51:22.574Z,10.60
2022-11-16T18:53:50.918Z,11.40
2022-11-16T18:56:19.540Z,9.20
2022-11-16T18:58:52.428Z,9.27
2022-11-16T19:01:24.592Z,8.67
2022-11-16T19:03:53.179Z,9.70
2022-11-16T19:06:21.545Z,10.07
2022-11-16T19:08:56.215Z,8.60
2022-11-16T19:11:25.437Z,10.40
2022-11-16T19:13:55.064Z,10.80
2022-11-16T19:16:25.436Z,11.00
2022-11-16T19:18:53.937Z,11.10
2022-11-16T19:21:23.358Z,10.43
2022-11-16T19:23:52.980Z,10.90
2022-11-16T19:26:23.959Z,10.43
2022-11-16T19:28:52.550Z,9.70
2022-11-16T19:31:22.411Z,9.83
2022-11-16T19:33:54.681Z,10.80
2022-11-16T19:36:22.886Z,9.30
2022-11-16T19:38:51.226Z,11.30
2022-11-16T19:41:21.234Z,11.60
2022-11-16T19:43:49.504Z,11.40
2022-11-16T19:46:18.393Z,13.00
2022-11-16T19:48:47.165Z,13.90
2022-11-16T19:51:18.220Z,11.93
2022-11-16T19:53:46.173Z,10.77
2022-11-16T19:56:16.530Z,11.30
2022-11-16T19:58:44.830Z,11.67
2022-11-16T20:01:14.596Z,11.33
2022-11-16T20:03:42.914Z,11.23
2022-11-16T20:06:12.979Z,10.57
2022-11-16T20:08:44.138Z,11.37
2022-11-16T20:11:13.654Z,9.60
2022-11-16T20:13:42.013Z,11.03
2022-11-16T20:16:11.497Z,9.93
2022-11-16T20:18:40.107Z,10.20
2022-11-16T20:21:09.156Z,8.93
2022-11-16T20:23:37.510Z,11.73
2022-11-16T20:26:08.637Z,9.60
2022-11-16T20:28:37.172Z,11.57
2022-11-16T20:31:08.429Z,10.10
2022-11-16T20:33:36.952Z,9.83
2022-11-16T20:36:07.576Z,9.20
2022-11-16T20:38:36.100Z,10.20
2022-11-16T20:41:13.592Z,10.33
2022-11-16T20:43:43.460Z,10.17
2022-11-16T20:46:13.018Z,10.97
2022-11-16T20:48:42.300Z,10.57
2022-11-16T20:51:11.934Z,10.87
2022-11-16T20:53:40.192Z,10.20
2022-11-16T20:56:08.682Z,11.07
2022-11-16T20:58:38.770Z,12.87
2022-11-16T21:01:08.819Z,11.23
2022-11-16T21:03:37.174Z,11.87
2022-11-16T21:06:08.479Z,10.57
2022-11-16T21:08:37.068Z,11.00
2022-11-16T21:11:11.387Z,10.40
2022-11-16T21:13:58.474Z,12.70
2022-11-16T21:16:27.344Z,11.13
2022-11-16T21:18:55.546Z,10.17
2022-11-16T21:21:25.256Z,11.30
2022-11-16T21:23:54.067Z,9.60
2022-11-16T21:26:23.466Z,10.63
2022-11-16T21:28:52.998Z,12.03
2022-11-16T21:31:25.316Z,11.57
2022-11-16T21:33:53.826Z,10.30
2022-11-16T21:36:24.947Z,10.63
2022-11-16T21:38:53.673Z,11.33
2022-11-16T21:41:23.180Z,11.53
2022-11-16T21:43:52.685Z,11.70
2022-11-16T21:46:22.366Z,11.67
2022-11-16T21:48:51.166Z,11.03
2022-11-16T21:51:20.774Z,13.63
2022-11-16T21:53:48.901Z,11.63
2022-11-16T21:56:20.036Z,11.87
2022-11-16T21:58:49.923Z,11.70
2022-11-16T22:01:20.085Z,11.47
2022-11-16T22:04:08.026Z,10.33
2022-11-16T22:07:05.266Z,9.00
2022-11-16T22:09:33.220Z,10.63
2022-11-16T22:12:05.280Z,9.80
2022-11-16T22:14:33.451Z,10.00
2022-11-16T22:17:03.771Z,10.83
2022-11-16T22:19:31.738Z,10.27
2022-11-16T22:21:59.913Z,9.37
2022-11-16T22:24:27.953Z,10.67
2022-11-16T22:26:55.923Z,10.20
2022-11-16T22:29:23.874Z,11.53
2022-11-16T22:31:51.810Z,11.00
2022-11-16T22:34:21.146Z,10.73
2022-11-16T22:36:49.097Z,10.03
2022-11-16T22:39:17.034Z,13.33
2022-11-16T22:41:45.010Z,13.90
2022-11-16T22:44:13.000Z,13.50
2022-11-16T22:46:40.975Z,13.30
2022-11-16T22:49:09.006Z,14.00
2022-11-16T22:51:39.337Z,15.67
2022-11-16T22:54:07.842Z,16.00
2022-11-16T22:56:35.861Z,14.93
2022-11-16T22:59:05.337Z,16.17
2022-11-16T23:01:33.561Z,16.10
2022-11-16T23:04:01.665Z,17.13
2022-11-16T23:06:30.024Z,15.60
2022-11-16T23:08:59.745Z,17.27
2022-11-16T23:11:45.951Z,17.10
2022-11-16T23:14:32.976Z,16.70
2022-11-16T23:17:01.201Z,16.97
2022-11-16T23:19:46.798Z,17.53
2022-11-16T23:22:34.608Z,18.17
2022-11-16T23:25:21.900Z,16.63
2022-11-16T23:27:56.448Z,19.17
2022-11-16T23:30:25.198Z,16.47
2022-11-16T23:32:53.415Z,16.80
2022-11-16T23:35:21.806Z,17.20
2022-11-16T23:37:54.156Z,19.27
2022-11-16T23:40:25.188Z,18.80
2022-11-16T23:43:10.694Z,16.90
2022-11-16T23:45:38.853Z,17.77
2022-11-16T23:48:07.674Z,17.50
2022-11-16T23:50:35.997Z,19.73
2022-11-16T23:53:04.481Z,19.80
2022-11-16T23:55:34.910Z,16.97
2022-11-16T23:58:02.829Z,19.23
